Martin H — LCWK — position and weather

sailwx.info

Track history (hours):
 
Tides and Currents Weather Stations Pressure Air Temp Water Temp Dewpoint Dewpoint Depression Visibility Wind Speed Wind Dir Waves Ship Positions

Martin H

Last reported at 2017-Dec-15 12:00 UTC. Time now 2017-Dec-15 12:17 UTC.
Position N 68°48' E 016°33'.

Length 68 m; draft 4.6 m.

Type: Cargo ship. MMSI: 257996000.

Date/timePositionNaut miles runAvg speedWind from/ knotsBaromVisibWave heightAir tempDewpointWater temp
2017-Dec-15 12:00N 68°48' E 016°33'0 0.0
2017-Dec-15 11:30N 68°48' E 016°33'0 0.0
2017-Dec-15 11:00N 68°48' E 016°33'0 0.0
2017-Dec-15 10:30N 68°48' E 016°33'0 0.0
2017-Dec-15 10:00N 68°48' E 016°33'0 0.0
2017-Dec-15 09:30N 68°48' E 016°33'0 0.0
2017-Dec-15 09:00N 68°48' E 016°33'0 0.0
2017-Dec-15 08:30N 68°48' E 016°33'0 0.0
2017-Dec-15 07:59N 68°48' E 016°33'0 0.0
2017-Dec-15 07:30N 68°48' E 016°33'0 0.0
2017-Dec-15 07:00N 68°48' E 016°33'0 0.0
2017-Dec-15 06:30N 68°48' E 016°33'0 0.0
2017-Dec-15 06:00N 68°48' E 016°33'0 0.0
2017-Dec-15 05:30N 68°48' E 016°33'0 0.0
2017-Dec-15 05:00N 68°48' E 016°33'0 0.0
2017-Dec-15 04:30N 68°48' E 016°33'0 0.0
2017-Dec-15 04:00N 68°48' E 016°33'0 0.0
2017-Dec-15 02:30N 68°48' E 016°33'0 0.0
2017-Dec-15 01:00N 68°48' E 016°33'0 0.0
2017-Dec-15 00:30N 68°48' E 016°33'0 0.0
2017-Dec-14 18:30N 68°48' E 016°33'0 0.0
2017-Dec-14 18:00N 68°48' E 016°33'0 0.0
2017-Dec-14 17:30N 68°48' E 016°33'0 0.0
2017-Dec-14 17:00N 68°48' E 016°33'0 0.0
2017-Dec-14 16:30N 68°48' E 016°33'0 0.0
2017-Dec-14 16:00N 68°48' E 016°33'0 0.0
2017-Dec-14 15:00N 68°48' E 016°33'0 0.0
2017-Dec-14 14:30N 68°48' E 016°33'0 0.0
2017-Dec-14 13:59N 68°48' E 016°33'0 0.0
2017-Dec-14 13:30N 68°48' E 016°33'0 0.0
2017-Dec-14 13:00N 68°48' E 016°33'0 0.0
2017-Dec-14 12:30N 68°48' E 016°33'0 0.0
2017-Dec-14 12:00N 68°48' E 016°33'0 0.0
2017-Dec-14 11:30N 68°48' E 016°33'0 0.0
2017-Dec-14 11:00N 68°48' E 016°33'0 0.0
2017-Dec-14 10:30N 68°48' E 016°33'0 0.0
2017-Dec-14 10:00N 68°48' E 016°33'0 0.0
2017-Dec-14 09:30N 68°48' E 016°33'0 0.0
2017-Dec-14 09:00N 68°48' E 016°33'0 0.0
2017-Dec-14 08:30N 68°48' E 016°33'0 0.0
2017-Dec-14 07:59N 68°48' E 016°33'0 0.0
2017-Dec-14 07:30N 68°48' E 016°33'0 0.0
2017-Dec-14 07:00N 68°48' E 016°33'0 0.0
2017-Dec-14 06:30N 68°48' E 016°33'0 0.5
2017-Dec-14 06:00N 68°48' E 016°34'3 5.1
2017-Dec-14 05:30N 68°47' E 016°39'4 8.5
2017-Dec-14 05:00N 68°42' E 016°40'4 8.9
2017-Dec-14 04:30N 68°38' E 016°36'4 8.3
2017-Dec-14 04:00N 68°34' E 016°32'3 6.2
2017-Dec-14 03:30N 68°33' E 016°24'4 7.6
2017-Dec-14 03:00N 68°33' E 016°13'4 8.7
2017-Dec-14 02:30N 68°29' E 016°07'4 8.8
2017-Dec-14 02:00N 68°25' E 016°01'0 0.9
2017-Dec-14 01:30N 68°25' E 015°60'0 0.0
2017-Dec-14 01:00N 68°25' E 015°60'0 0.0
2017-Dec-14 00:30N 68°25' E 015°60'0 0.0
2017-Dec-14 00:00N 68°25' E 015°60'0 0.0
2017-Dec-13 23:30N 68°25' E 015°60'0 0.0
2017-Dec-13 23:00N 68°25' E 015°60'0 0.0
2017-Dec-13 22:30N 68°25' E 015°60'0 0.0
2017-Dec-13 22:00N 68°25' E 015°60'0 0.0
2017-Dec-13 21:30N 68°25' E 015°60'2 5.1
2017-Dec-13 21:00N 68°23' E 016°05'4 7.7
2017-Dec-13 20:30N 68°23' E 016°15'4 7.9
2017-Dec-13 20:00N 68°25' E 016°25'4 7.8
2017-Dec-13 19:30N 68°26' E 016°36'4 7.8
2017-Dec-13 19:00N 68°26' E 016°46'4 8.0
2017-Dec-13 18:30N 68°26' E 016°57'4 7.5
2017-Dec-13 18:00N 68°26' E 017°07'4 7.6
2017-Dec-13 17:30N 68°26' E 017°18'3 5.6
2017-Dec-13 17:00N 68°26' E 017°25'1 2.8
2017-Dec-13 16:30N 68°26' E 017°22'4 7.2
2017-Dec-13 16:00N 68°29' E 017°27'4 7.3
2017-Dec-13 15:30N 68°32' E 017°34'0 0.3
2017-Dec-13 15:00N 68°32' E 017°34'0 0.0
2017-Dec-13 14:30N 68°32' E 017°34'0 0.0
2017-Dec-13 13:59N 68°32' E 017°34'0 0.0
2017-Dec-13 13:30N 68°32' E 017°34'0 0.0
2017-Dec-13 13:00N 68°32' E 017°34'0 0.1
2017-Dec-13 12:30N 68°32' E 017°34'3 5.6
2017-Dec-13 12:00N 68°30' E 017°28'4 7.7
2017-Dec-13 11:30N 68°27' E 017°22'2 3.6
2017-Dec-13 11:00N 68°26' E 017°25'0 0.0
2017-Dec-13 10:30N 68°26' E 017°25'0 0.0
2017-Dec-13 10:00N 68°26' E 017°25'0 0.0
2017-Dec-13 09:30N 68°26' E 017°25'0 0.0
2017-Dec-13 09:00N 68°26' E 017°25'0 0.0
2017-Dec-13 08:30N 68°26' E 017°25'0 0.0
2017-Dec-13 07:59N 68°26' E 017°25'2 4.9
2017-Dec-13 07:30N 68°26' E 017°19'4 7.5
2017-Dec-13 07:00N 68°26' E 017°09'4 7.6
2017-Dec-13 06:29N 68°26' E 016°58'4 7.8
2017-Dec-13 06:00N 68°26' E 016°47'4 7.9
2017-Dec-13 05:30N 68°26' E 016°37'4 7.6
2017-Dec-13 05:00N 68°25' E 016°27'4 7.8
2017-Dec-13 04:30N 68°23' E 016°17'4 7.7
2017-Dec-13 04:00N 68°22' E 016°07'4 7.5
2017-Dec-13 03:30N 68°20' E 015°59'4 7.8
2017-Dec-13 03:00N 68°17' E 015°51'4 7.7
2017-Dec-13 02:30N 68°15' E 015°43'4 7.6
2017-Dec-13 02:00N 68°13' E 015°35'4 7.4
2017-Dec-13 01:30N 68°10' E 015°27'4 7.6
2017-Dec-13 01:00N 68°08' E 015°19'4 7.8
2017-Dec-13 00:30N 68°05' E 015°12'4 7.8
2017-Dec-13 00:00N 68°02' E 015°04'4 7.3
2017-Dec-12 23:30N 67°60' E 014°57'4 7.1
2017-Dec-12 23:00N 67°57' E 014°50'4 7.3
2017-Dec-12 22:30N 67°54' E 014°44'4 7.1
2017-Dec-12 22:00N 67°51' E 014°41'4 7.5
2017-Dec-12 21:30N 67°49' E 014°34'4 7.4
2017-Dec-12 21:00N 67°45' E 014°31'4 7.7
2017-Dec-12 20:30N 67°41' E 014°31'4 7.6
2017-Dec-12 20:00N 67°37' E 014°31'4 7.5
2017-Dec-12 19:30N 67°34' E 014°30'4 7.8
2017-Dec-12 19:00N 67°30' E 014°29'4 7.6
2017-Dec-12 18:30N 67°26' E 014°28'4 7.7
2017-Dec-12 18:00N 67°22' E 014°25'4 7.8
2017-Dec-12 17:31N 67°19' E 014°19'4 7.9
2017-Dec-12 17:00N 67°16' E 014°13'4 7.8
2017-Dec-12 16:30N 67°13' E 014°08'4 8.0
2017-Dec-12 16:00N 67°09' E 014°02'4 7.8
2017-Dec-12 15:30N 67°06' E 013°57'4 7.9
2017-Dec-12 15:00N 67°03' E 013°51'4 7.7
2017-Dec-12 14:30N 67°01' E 013°43'4 7.8
2017-Dec-12 14:00N 66°59' E 013°34'3 6.9
2017-Dec-12 13:30N 66°56' E 013°29'4 7.4
2017-Dec-12 13:00N 66°53' E 013°23'4 7.6
2017-Dec-12 12:30N 66°50' E 013°17'4 7.8
2017-Dec-12 12:00N 66°47' E 013°14'4 7.7
2017-Dec-12 11:30N 66°43' E 013°11'4 7.9
2017-Dec-12 11:00N 66°39' E 013°07'4 7.9
2017-Dec-12 10:30N 66°35' E 013°04'4 6.9
2017-Dec-12 09:59N 66°32' E 012°60'4 7.7
2017-Dec-12 09:30N 66°29' E 012°59'4 8.5
2017-Dec-12 09:00N 66°24' E 012°59'4 8.5
2017-Dec-12 08:30N 66°20' E 012°57'4 8.2
2017-Dec-12 08:00N 66°16' E 012°55'3 6.5
2017-Dec-12 07:30N 66°13' E 012°57'2 3.3
2017-Dec-12 07:00N 66°12' E 013°00'0 1.0
2017-Dec-12 06:30N 66°13' E 013°01'2 5.0
2017-Dec-12 06:00N 66°10' E 013°01'4 8.0
2017-Dec-12 05:30N 66°11' E 013°11'1 2.5
2017-Dec-12 05:00N 66°11' E 013°14'0 0.0
2017-Dec-12 04:25N 66°11' E 013°14'0 0.0
2017-Dec-12 04:00N 66°11' E 013°14'0 0.0
2017-Dec-12 03:30N 66°11' E 013°14'0 0.0
2017-Dec-12 03:00N 66°11' E 013°14'0 0.0
2017-Dec-12 02:30N 66°11' E 013°14'0 0.0
2017-Dec-12 02:00N 66°11' E 013°14'0 0.0
2017-Dec-12 01:30N 66°11' E 013°14'0 0.0
2017-Dec-12 01:00N 66°11' E 013°14'0 0.2
2017-Dec-12 00:30N 66°11' E 013°14'5 9.9
2017-Dec-12 00:00N 66°10' E 013°01'2 3.9
2017-Dec-11 23:30N 66°12' E 013°00'0 0.0
2017-Dec-11 23:00N 66°12' E 013°00'1 1.1
2017-Dec-11 22:30N 66°13' E 013°01'4 8.7
2017-Dec-11 22:00N 66°16' E 013°08'  
2017-Dec-07 11:48N 66°16' E 013°11'  
Track history (hours):
 
Tides and Currents Weather Stations Pressure Air Temp Water Temp Dewpoint Dewpoint Depression Visibility Wind Speed Wind Dir Waves Ship Positions

Martin H

Last reported at 2017-Dec-15 12:00 UTC. Time now 2017-Dec-15 12:17 UTC.
Position N 68°48' E 016°33'.

Length 68 m; draft 4.6 m.

Type: Cargo ship. MMSI: 257996000.

Date/timePositionNaut miles runAvg speedWind from/ knotsBaromVisibWave heightAir tempDewpointWater temp
2017-Dec-15 12:00N 68°48' E 016°33'0 0.0
2017-Dec-15 11:30N 68°48' E 016°33'0 0.0
2017-Dec-15 11:00N 68°48' E 016°33'0 0.0
2017-Dec-15 10:30N 68°48' E 016°33'0 0.0
2017-Dec-15 10:00N 68°48' E 016°33'0 0.0
2017-Dec-15 09:30N 68°48' E 016°33'0 0.0
2017-Dec-15 09:00N 68°48' E 016°33'0 0.0
2017-Dec-15 08:30N 68°48' E 016°33'0 0.0
2017-Dec-15 07:59N 68°48' E 016°33'0 0.0
2017-Dec-15 07:30N 68°48' E 016°33'0 0.0
2017-Dec-15 07:00N 68°48' E 016°33'0 0.0
2017-Dec-15 06:30N 68°48' E 016°33'0 0.0
2017-Dec-15 06:00N 68°48' E 016°33'0 0.0
2017-Dec-15 05:30N 68°48' E 016°33'0 0.0
2017-Dec-15 05:00N 68°48' E 016°33'0 0.0
2017-Dec-15 04:30N 68°48' E 016°33'0 0.0
2017-Dec-15 04:00N 68°48' E 016°33'0 0.0
2017-Dec-15 02:30N 68°48' E 016°33'0 0.0
2017-Dec-15 01:00N 68°48' E 016°33'0 0.0
2017-Dec-15 00:30N 68°48' E 016°33'0 0.0
2017-Dec-14 18:30N 68°48' E 016°33'0 0.0
2017-Dec-14 18:00N 68°48' E 016°33'0 0.0
2017-Dec-14 17:30N 68°48' E 016°33'0 0.0
2017-Dec-14 17:00N 68°48' E 016°33'0 0.0
2017-Dec-14 16:30N 68°48' E 016°33'0 0.0
2017-Dec-14 16:00N 68°48' E 016°33'0 0.0
2017-Dec-14 15:00N 68°48' E 016°33'0 0.0
2017-Dec-14 14:30N 68°48' E 016°33'0 0.0
2017-Dec-14 13:59N 68°48' E 016°33'0 0.0
2017-Dec-14 13:30N 68°48' E 016°33'0 0.0
2017-Dec-14 13:00N 68°48' E 016°33'0 0.0
2017-Dec-14 12:30N 68°48' E 016°33'0 0.0
2017-Dec-14 12:00N 68°48' E 016°33'0 0.0
2017-Dec-14 11:30N 68°48' E 016°33'0 0.0
2017-Dec-14 11:00N 68°48' E 016°33'0 0.0
2017-Dec-14 10:30N 68°48' E 016°33'0 0.0
2017-Dec-14 10:00N 68°48' E 016°33'0 0.0
2017-Dec-14 09:30N 68°48' E 016°33'0 0.0
2017-Dec-14 09:00N 68°48' E 016°33'0 0.0
2017-Dec-14 08:30N 68°48' E 016°33'0 0.0
2017-Dec-14 07:59N 68°48' E 016°33'0 0.0
2017-Dec-14 07:30N 68°48' E 016°33'0 0.0
2017-Dec-14 07:00N 68°48' E 016°33'0 0.0
2017-Dec-14 06:30N 68°48' E 016°33'0 0.5
2017-Dec-14 06:00N 68°48' E 016°34'3 5.1
2017-Dec-14 05:30N 68°47' E 016°39'4 8.5
2017-Dec-14 05:00N 68°42' E 016°40'4 8.9
2017-Dec-14 04:30N 68°38' E 016°36'4 8.3
2017-Dec-14 04:00N 68°34' E 016°32'3 6.2
2017-Dec-14 03:30N 68°33' E 016°24'4 7.6
2017-Dec-14 03:00N 68°33' E 016°13'4 8.7
2017-Dec-14 02:30N 68°29' E 016°07'4 8.8
2017-Dec-14 02:00N 68°25' E 016°01'0 0.9
2017-Dec-14 01:30N 68°25' E 015°60'0 0.0
2017-Dec-14 01:00N 68°25' E 015°60'0 0.0
2017-Dec-14 00:30N 68°25' E 015°60'0 0.0
2017-Dec-14 00:00N 68°25' E 015°60'0 0.0
2017-Dec-13 23:30N 68°25' E 015°60'0 0.0
2017-Dec-13 23:00N 68°25' E 015°60'0 0.0
2017-Dec-13 22:30N 68°25' E 015°60'0 0.0
2017-Dec-13 22:00N 68°25' E 015°60'0 0.0
2017-Dec-13 21:30N 68°25' E 015°60'2 5.1
2017-Dec-13 21:00N 68°23' E 016°05'4 7.7
2017-Dec-13 20:30N 68°23' E 016°15'4 7.9
2017-Dec-13 20:00N 68°25' E 016°25'4 7.8
2017-Dec-13 19:30N 68°26' E 016°36'4 7.8
2017-Dec-13 19:00N 68°26' E 016°46'4 8.0
2017-Dec-13 18:30N 68°26' E 016°57'4 7.5
2017-Dec-13 18:00N 68°26' E 017°07'4 7.6
2017-Dec-13 17:30N 68°26' E 017°18'3 5.6
2017-Dec-13 17:00N 68°26' E 017°25'1 2.8
2017-Dec-13 16:30N 68°26' E 017°22'4 7.2
2017-Dec-13 16:00N 68°29' E 017°27'4 7.3
2017-Dec-13 15:30N 68°32' E 017°34'0 0.3
2017-Dec-13 15:00N 68°32' E 017°34'0 0.0
2017-Dec-13 14:30N 68°32' E 017°34'0 0.0
2017-Dec-13 13:59N 68°32' E 017°34'0 0.0
2017-Dec-13 13:30N 68°32' E 017°34'0 0.0
2017-Dec-13 13:00N 68°32' E 017°34'0 0.1
2017-Dec-13 12:30N 68°32' E 017°34'3 5.6
2017-Dec-13 12:00N 68°30' E 017°28'4 7.7
2017-Dec-13 11:30N 68°27' E 017°22'2 3.6
2017-Dec-13 11:00N 68°26' E 017°25'0 0.0
2017-Dec-13 10:30N 68°26' E 017°25'0 0.0
2017-Dec-13 10:00N 68°26' E 017°25'0 0.0
2017-Dec-13 09:30N 68°26' E 017°25'0 0.0
2017-Dec-13 09:00N 68°26' E 017°25'0 0.0
2017-Dec-13 08:30N 68°26' E 017°25'0 0.0
2017-Dec-13 07:59N 68°26' E 017°25'2 4.9
2017-Dec-13 07:30N 68°26' E 017°19'4 7.5
2017-Dec-13 07:00N 68°26' E 017°09'4 7.6
2017-Dec-13 06:29N 68°26' E 016°58'4 7.8
2017-Dec-13 06:00N 68°26' E 016°47'4 7.9
2017-Dec-13 05:30N 68°26' E 016°37'4 7.6
2017-Dec-13 05:00N 68°25' E 016°27'4 7.8
2017-Dec-13 04:30N 68°23' E 016°17'4 7.7
2017-Dec-13 04:00N 68°22' E 016°07'4 7.5
2017-Dec-13 03:30N 68°20' E 015°59'4 7.8
2017-Dec-13 03:00N 68°17' E 015°51'4 7.7
2017-Dec-13 02:30N 68°15' E 015°43'4 7.6
2017-Dec-13 02:00N 68°13' E 015°35'4 7.4
2017-Dec-13 01:30N 68°10' E 015°27'4 7.6
2017-Dec-13 01:00N 68°08' E 015°19'4 7.8
2017-Dec-13 00:30N 68°05' E 015°12'4 7.8
2017-Dec-13 00:00N 68°02' E 015°04'4 7.3
2017-Dec-12 23:30N 67°60' E 014°57'4 7.1
2017-Dec-12 23:00N 67°57' E 014°50'4 7.3
2017-Dec-12 22:30N 67°54' E 014°44'4 7.1
2017-Dec-12 22:00N 67°51' E 014°41'4 7.5
2017-Dec-12 21:30N 67°49' E 014°34'4 7.4
2017-Dec-12 21:00N 67°45' E 014°31'4 7.7
2017-Dec-12 20:30N 67°41' E 014°31'4 7.6
2017-Dec-12 20:00N 67°37' E 014°31'4 7.5
2017-Dec-12 19:30N 67°34' E 014°30'4 7.8
2017-Dec-12 19:00N 67°30' E 014°29'4 7.6
2017-Dec-12 18:30N 67°26' E 014°28'4 7.7
2017-Dec-12 18:00N 67°22' E 014°25'4 7.8
2017-Dec-12 17:31N 67°19' E 014°19'4 7.9
2017-Dec-12 17:00N 67°16' E 014°13'4 7.8
2017-Dec-12 16:30N 67°13' E 014°08'4 8.0
2017-Dec-12 16:00N 67°09' E 014°02'4 7.8
2017-Dec-12 15:30N 67°06' E 013°57'4 7.9
2017-Dec-12 15:00N 67°03' E 013°51'4 7.7
2017-Dec-12 14:30N 67°01' E 013°43'4 7.8
2017-Dec-12 14:00N 66°59' E 013°34'3 6.9
2017-Dec-12 13:30N 66°56' E 013°29'4 7.4
2017-Dec-12 13:00N 66°53' E 013°23'4 7.6
2017-Dec-12 12:30N 66°50' E 013°17'4 7.8
2017-Dec-12 12:00N 66°47' E 013°14'4 7.7
2017-Dec-12 11:30N 66°43' E 013°11'4 7.9
2017-Dec-12 11:00N 66°39' E 013°07'4 7.9
2017-Dec-12 10:30N 66°35' E 013°04'4 6.9
2017-Dec-12 09:59N 66°32' E 012°60'4 7.7
2017-Dec-12 09:30N 66°29' E 012°59'4 8.5
2017-Dec-12 09:00N 66°24' E 012°59'4 8.5
2017-Dec-12 08:30N 66°20' E 012°57'4 8.2
2017-Dec-12 08:00N 66°16' E 012°55'3 6.5
2017-Dec-12 07:30N 66°13' E 012°57'2 3.3
2017-Dec-12 07:00N 66°12' E 013°00'0 1.0
2017-Dec-12 06:30N 66°13' E 013°01'2 5.0
2017-Dec-12 06:00N 66°10' E 013°01'4 8.0
2017-Dec-12 05:30N 66°11' E 013°11'1 2.5
2017-Dec-12 05:00N 66°11' E 013°14'0 0.0
2017-Dec-12 04:25N 66°11' E 013°14'0 0.0
2017-Dec-12 04:00N 66°11' E 013°14'0 0.0
2017-Dec-12 03:30N 66°11' E 013°14'0 0.0
2017-Dec-12 03:00N 66°11' E 013°14'0 0.0
2017-Dec-12 02:30N 66°11' E 013°14'0 0.0
2017-Dec-12 02:00N 66°11' E 013°14'0 0.0
2017-Dec-12 01:30N 66°11' E 013°14'0 0.0
2017-Dec-12 01:00N 66°11' E 013°14'0 0.2
2017-Dec-12 00:30N 66°11' E 013°14'5 9.9
2017-Dec-12 00:00N 66°10' E 013°01'2 3.9
2017-Dec-11 23:30N 66°12' E 013°00'0 0.0
2017-Dec-11 23:00N 66°12' E 013°00'1 1.1
2017-Dec-11 22:30N 66°13' E 013°01'4 8.7
2017-Dec-11 22:00N 66°16' E 013°08'  
2017-Dec-07 11:48N 66°16' E 013°11'  

Dump ship's entire track history